Gaylord, MI (49735)

6:53 AM EDT on September 02, 2015 (GMT -0400)
Castlewood Drive | | Change Station
CLOSE
Current Station
Personal Weather Station
Location: Gaylord, MI
Elevation: 1315 ft
Nearby Weather Stations

Elev 1315 ft 44.99 °N, 84.66 °W | Updated 1 minute ago

Mostly Cloudy
Mostly Cloudy
68.0 °F
Feels Like 68.0 °F
N
0.0
Wind Variable Wind from North
Gusts 0.0 mph

Today
High -- | Low -- °F
--% Chance of Precip.
Yesterday
High -- | Low -- °F
Precip. -- in
7:01 AM 8:14 PM
Waning Gibbous, 81% visible
Pressure 30.00 in
Visibility 2.5 miles
Clouds Clear
Dew Point 66 °F
Humidity 95%
Rainfall 0.00 in
Snow Depth Not available.
UV 0.0 out of 12
Pollen 11.00 out of 12
Air Quality Not available.
Flu Activity Not available.
SPECI KGLR 021027Z AUTO 20003KT 2 1/2SM BR CLR 21/21 A3000 RMK AO2 T02060206
Pressure 30.00 in
Visibility 2.5 miles
Clouds Clear
Dew Point 66 °F
Humidity 95%
Rainfall 0.00 in
Snow Depth Not available.
UV 0.0 out of 12
Pollen 11.00 out of 12
Air Quality Not available.
Flu Activity Not available.
SPECI KGLR 021027Z AUTO 20003KT 2 1/2SM BR CLR 21/21 A3000 RMK AO2 T02060206
Nowcast | as of 6:00 am EDT on September 2, 2015

At 7 am...partly cloudy. Areas of fog. Temperature 68. Light winds. At 9 am...partly cloudy. Areas of fog. Temperature 71. West winds 5 mph. At 11 am...partly cloudy. Temperature 78. West winds 5 mph. At 1 PM...partly cloudy. Temperature 83. Northwest winds 5 mph.

×

10-Day Weather Forecast

×

Almanac

Astronomy

Sep. 02, 2015 Rise Set
Actual Time
Civil Twilight
Nautical Twilight
Astronomical Twilight
Moon
Length of Visible Light
Length of Day
Tomorrow will be .
, % of the Moon is Illuminated

Today's Extremes

State Highs State Lows

Community

WunderPhotos

Upload Photos

1,851,734 photos uploaded!

WunderBlogs® & News

Nearby

Air Quality

  Air Quality AQ Index Pollutant
Not available.

Snow Depth

Station Depth Elevation

Earthquake Activity

City Distance Mag. Time & Date
Minimum magnitude displayed is 2.5.

Coastal Water Temperatures

Place Temperature

Stations

Nearby Weather Stations

Station Location Temp. Windchill Dew Point Humidity Wind Precip. Elev Updated Type